Time;durP1;ratioP1;P1;durP2;ratioP2;P2;SDS_P1;SDS_P2;PMS_P1;PMS_P2;Temp;Humidity;BMP_temperature;BMP_pressure;BME280_temperature;BME280_humidity;BME280_pressure;Samples;Min_cycle;Max_cycle;Signal;HPM_P1;HPM_P2
2022/08/24 00:02:01;;;;;;;;;;;;;;;19.19;98.21;100825.55;1619228;87;20359;-79
2022/08/24 00:04:27;;;;;;;;;;;;;;;19.16;98.21;100823.28;1618169;87;20177;-78
2022/08/24 00:06:53;;;;;;;;;;;;;;;19.14;98.21;100824.00;1619169;87;21845;-79
2022/08/24 00:09:19;;;;;;;;;;;;;;;19.11;98.21;100823.08;1618576;87;20208;-79
2022/08/24 00:11:45;;;;;;;;;;;;;;;19.12;98.24;100826.63;1619370;87;20569;-78
2022/08/24 00:14:10;;;;;;;;;;;;;;;19.11;98.23;100823.08;1620241;87;20287;-79
2022/08/24 00:16:36;;;;;;;;;;;;;;;19.08;98.22;100822.17;1624770;87;20188;-80
2022/08/24 00:19:03;;;;;;;;;;;;;;;19.08;98.25;100827.58;1634798;87;21851;-79
2022/08/24 00:21:29;;;;;;;;;;;;;;;19.08;98.26;100835.69;1614523;87;20801;-79
2022/08/24 00:23:55;;;;;;;;;;;;;;;19.10;98.29;100839.02;1619524;86;20225;-79
2022/08/24 00:26:21;;;;;;;;;;;;;;;19.10;98.29;100837.67;1638535;87;20596;-79
2022/08/24 00:28:47;;;;;;;;;;;;;;;19.10;98.30;100832.27;1619833;87;20220;-79
2022/08/24 00:31:13;;;;;;;;;;;;;;;19.11;98.30;100833.90;1635853;87;21688;-78
2022/08/24 00:33:39;;;;;;;;;;;;;;;19.12;98.29;100829.33;1640522;87;20244;-79
2022/08/24 00:36:05;;;;;;;;;;;;;;;19.09;98.30;100836.00;1624984;87;20150;-79
2022/08/24 00:38:34;;;;;;;;;;;;;;;19.04;98.30;100833.09;1638217;86;20408;-79
2022/08/24 00:41:00;;;;;;;;;;;;;;;19.01;98.28;100832.17;1628468;86;20180;-79
2022/08/24 00:43:25;;;;;;;;;;;;;;;19.01;98.32;100835.40;1643022;86;21249;-79
2022/08/24 00:46:04;;;;;;;;;;;;;;;19.01;98.30;100843.52;1642862;86;20194;-79
2022/08/24 00:48:31;;;;;;;;;;;;;;;19.00;98.34;100841.88;1640822;86;20170;-79
2022/08/24 00:50:59;;;;;;;;;;;;;;;19.02;98.37;100846.02;1643015;86;20319;-79
2022/08/24 00:53:38;;;;;;;;;;;;;;;19.04;98.44;100843.91;1643299;86;20151;-78
2022/08/24 00:56:07;;;;;;;;;;;;;;;19.04;98.44;100841.20;1625739;86;22572;-79
2022/08/24 00:58:37;;;;;;;;;;;;;;;19.01;98.43;100843.52;1642798;86;20191;-79
2022/08/24 01:01:05;;;;;;;;;;;;;;;19.03;98.49;100847.69;1645314;86;20421;-80
2022/08/24 01:03:31;;;;;;;;;;;;;;;19.02;98.52;100848.72;1642645;86;20431;-79
2022/08/24 01:05:58;;;;;;;;;;;;;;;19.00;98.49;100852.14;1642823;86;20754;-79
2022/08/24 01:08:25;;;;;;;;;;;;;;;19.00;98.49;100846.73;1644466;86;22668;-79
2022/08/24 01:10:56;;;;;;;;;;;;;;;19.00;98.49;100852.14;1642740;86;38100;-79
2022/08/24 01:13:22;;;;;;;;;;;;;;;19.00;98.47;100849.44;1642527;86;20434;-79
2022/08/24 01:15:49;;;;;;;;;;;;;;;18.98;98.43;100850.70;1643003;86;20433;-79
2022/08/24 01:21:11;;;;;;;;;;;;;;;18.92;98.44;100846.98;1642915;86;21639;-79
2022/08/24 01:23:42;;;;;;;;;;;;;;;18.94;98.49;100848.95;1641140;86;20589;-79
2022/08/24 01:26:11;;;;;;;;;;;;;;;18.92;98.47;100844.29;1643090;86;20198;-78
2022/08/24 01:28:38;;;;;;;;;;;;;;;18.95;98.53;100843.86;1642788;86;20314;-78
2022/08/24 01:31:04;;;;;;;;;;;;;;;18.95;98.54;100837.09;1643005;86;20199;-79
2022/08/24 01:33:31;;;;;;;;;;;;;;;18.95;98.57;100831.17;1642333;86;21765;-79
2022/08/24 01:36:01;;;;;;;;;;;;;;;18.96;98.55;100836.06;1635163;86;20171;-78
2022/08/24 01:38:27;;;;;;;;;;;;;;;18.95;98.54;100831.17;1634910;87;20164;-79
2022/08/24 01:40:56;;;;;;;;;;;;;;;18.95;98.55;100827.64;1619154;87;20278;-79
2022/08/24 01:43:23;;;;;;;;;;;;;;;18.93;98.58;100822.43;1618301;87;20487;-79
2022/08/24 01:45:49;;;;;;;;;;;;;;;18.92;98.60;100819.44;1619304;87;21864;-78
2022/08/24 01:48:15;;;;;;;;;;;;;;;18.90;98.58;100817.97;1618724;87;20159;-79
2022/08/24 01:50:41;;;;;;;;;;;;;;;18.88;98.59;100818.72;1623497;87;20423;-79
2022/08/24 01:53:08;;;;;;;;;;;;;;;18.84;98.56;100819.67;1625806;87;20392;-79
2022/08/24 01:55:34;;;;;;;;;;;;;;;18.82;98.56;100818.23;1619376;87;20202;-79
2022/08/24 01:58:00;;;;;;;;;;;;;;;18.80;98.59;100820.30;1619050;87;21778;-79
2022/08/24 02:00:26;;;;;;;;;;;;;;;18.81;98.62;100827.37;1618634;87;20638;-78
2022/08/24 02:02:52;;;;;;;;;;;;;;;18.82;98.65;100831.75;1619126;87;20159;-78
2022/08/24 02:05:18;;;;;;;;;;;;;;;18.83;98.67;100836.92;1602523;87;20415;-78
2022/08/24 02:07:44;;;;;;;;;;;;;;;18.82;98.69;100833.09;1616788;87;20218;-79
2022/08/24 02:10:11;;;;;;;;;;;;;;;18.84;98.71;100833.70;1619715;88;21451;-78
2022/08/24 02:12:38;;;;;;;;;;;;;;;18.84;98.71;100831.00;1628611;87;20518;-79
2022/08/24 02:15:06;;;;;;;;;;;;;;;18.80;98.67;100827.89;1634839;87;20188;-79
2022/08/24 02:17:33;;;;;;;;;;;;;;;18.78;98.69;100834.05;1636023;87;20574;-79
2022/08/24 02:20:00;;;;;;;;;;;;;;;18.79;98.73;100834.33;1625899;87;20403;-78
2022/08/24 02:22:26;;;;;;;;;;;;;;;18.79;98.75;100832.14;1629359;87;21683;-79
2022/08/24 02:24:52;;;;;;;;;;;;;;;18.78;98.72;100829.16;1635978;87;20324;-79
2022/08/24 02:27:18;;;;;;;;;;;;;;;18.76;98.73;100832.06;1629711;87;20198;-79
2022/08/24 02:29:43;;;;;;;;;;;;;;;18.77;98.76;100835.08;1634530;87;20430;-78
2022/08/24 02:32:11;;;;;;;;;;;;;;;18.77;98.76;100835.59;1632886;87;20846;-79
2022/08/24 02:34:37;;;;;;;;;;;;;;;18.74;98.74;100842.78;1631843;87;21787;-78
2022/08/24 02:37:03;;;;;;;;;;;;;;;18.73;98.74;100839.77;1582422;87;20155;-79
2022/08/24 02:39:29;;;;;;;;;;;;;;;18.72;98.76;100844.33;1617983;87;20107;-79
2022/08/24 02:41:55;;;;;;;;;;;;;;;18.71;98.76;100842.69;1601141;87;20181;-79
2022/08/24 02:44:21;;;;;;;;;;;;;;;18.70;98.78;100841.02;1630294;87;20283;-79
2022/08/24 02:46:47;;;;;;;;;;;;;;;18.68;98.76;100843.64;1641854;87;21730;-78
2022/08/24 02:49:13;;;;;;;;;;;;;;;18.68;98.80;100844.98;1627629;87;21041;-79
2022/08/24 02:51:41;;;;;;;;;;;;;;;18.67;98.80;100854.96;1642762;87;20196;-79
2022/08/24 02:54:08;;;;;;;;;;;;;;;18.68;98.81;100859.85;1644244;87;20377;-79
2022/08/24 02:56:34;;;;;;;;;;;;;;;18.66;98.81;100862.75;1629362;87;20163;-79
2022/08/24 02:59:00;;;;;;;;;;;;;;;18.68;98.84;100858.50;1640256;87;22483;-79
2022/08/24 03:01:26;;;;;;;;;;;;;;;18.69;98.85;100859.63;1642977;87;20948;-79
2022/08/24 03:03:53;;;;;;;;;;;;;;;18.70;98.86;100867.20;1625217;87;20200;-79
2022/08/24 03:06:18;;;;;;;;;;;;;;;18.69;98.87;100866.89;1629484;87;20302;-79
2022/08/24 03:08:45;;;;;;;;;;;;;;;18.70;98.93;100865.86;1639688;87;20173;-79
2022/08/24 03:11:11;;;;;;;;;;;;;;;18.69;98.92;100864.19;1645033;87;21691;-79
2022/08/24 03:13:37;;;;;;;;;;;;;;;18.68;98.97;100865.25;1628544;87;20255;-80
2022/08/24 03:16:03;;;;;;;;;;;;;;;18.68;98.98;100865.25;1641672;87;20428;-79
2022/08/24 03:18:29;;;;;;;;;;;;;;;18.68;98.98;100869.30;1634601;87;20383;-79
2022/08/24 03:20:56;;;;;;;;;;;;;;;18.68;98.97;100865.25;1643262;87;20498;-79
2022/08/24 03:23:22;;;;;;;;;;;;;;;18.68;99.02;100870.66;1631300;87;21766;-79
2022/08/24 03:25:50;;;;;;;;;;;;;;;18.68;99.04;100867.95;1636371;87;20189;-79
2022/08/24 03:28:18;;;;;;;;;;;;;;;18.69;99.06;100873.12;1617726;87;20202;-79
2022/08/24 03:30:44;;;;;;;;;;;;;;;18.68;99.05;100876.06;1641086;87;20276;-79
2022/08/24 03:33:10;;;;;;;;;;;;;;;18.69;99.06;100878.53;1632759;87;20203;-78
2022/08/24 03:35:37;;;;;;;;;;;;;;;18.71;99.08;100876.98;1615660;87;21808;-80
2022/08/24 03:38:03;;;;;;;;;;;;;;;18.72;99.08;100877.27;1609049;87;20159;-79
2022/08/24 03:40:29;;;;;;;;;;;;;;;18.72;99.09;100877.27;1618925;87;20144;-79
2022/08/24 03:42:55;;;;;;;;;;;;;;;18.72;99.09;100882.67;1618738;87;20415;-79
2022/08/24 03:45:21;;;;;;;;;;;;;;;18.71;99.10;100883.74;1618857;87;20154;-78
2022/08/24 03:47:47;;;;;;;;;;;;;;;18.69;99.12;100893.39;1618674;87;21705;-79
2022/08/24 03:50:13;;;;;;;;;;;;;;;18.68;99.13;100890.92;1619087;87;20862;-79
2022/08/24 03:52:40;;;;;;;;;;;;;;;18.65;99.16;100896.72;1618686;87;20277;-79
2022/08/24 03:55:07;;;;;;;;;;;;;;;18.63;99.13;100896.95;1610181;87;20296;-78
2022/08/24 03:57:33;;;;;;;;;;;;;;;18.62;99.13;100898.49;1618761;87;20179;-78
2022/08/24 04:00:00;;;;;;;;;;;;;;;18.61;99.12;100899.55;1618887;87;21774;-79
2022/08/24 04:02:26;;;;;;;;;;;;;;;18.57;99.15;100902.36;1618243;87;20196;-78
2022/08/24 04:04:52;;;;;;;;;;;;;;;18.57;99.13;100899.14;1618865;87;20273;-79
2022/08/24 04:07:18;;;;;;;;;;;;;;;18.56;99.12;100897.99;1618564;87;21012;-79
2022/08/24 04:09:44;;;;;;;;;;;;;;;18.53;99.14;100897.06;1619055;87;20163;-79
2022/08/24 04:12:10;;;;;;;;;;;;;;;18.50;99.14;100900.99;1618446;87;21780;-79
2022/08/24 04:14:37;;;;;;;;;;;;;;;18.48;99.14;100897.13;1618842;87;20229;-78
2022/08/24 04:17:03;;;;;;;;;;;;;;;18.47;99.13;100896.81;1624855;87;20151;-78
2022/08/24 04:19:29;;;;;;;;;;;;;;;18.47;99.16;100902.77;1623829;87;20321;-79
2022/08/24 04:21:57;;;;;;;;;;;;;;;18.46;99.17;100901.92;1618207;87;20198;-78
2022/08/24 04:24:23;;;;;;;;;;;;;;;18.49;99.18;100904.72;1620404;87;21769;-79
2022/08/24 04:26:49;;;;;;;;;;;;;;;18.51;99.21;100903.20;1626512;87;20182;-79
2022/08/24 04:29:16;;;;;;;;;;;;;;;18.53;99.24;100905.17;1619286;87;20224;-79
2022/08/24 04:31:42;;;;;;;;;;;;;;;18.53;99.25;100901.95;1618631;87;20317;-79
2022/08/24 04:34:08;;;;;;;;;;;;;;;18.54;99.29;100901.44;1618979;87;20662;-78
2022/08/24 04:36:34;;;;;;;;;;;;;;;18.54;99.29;100904.14;1612847;85;21841;-78
2022/08/24 04:39:00;;;;;;;;;;;;;;;18.54;99.28;100905.48;1618860;87;20828;-79
2022/08/24 04:41:27;;;;;;;;;;;;;;;18.56;99.33;100902.88;1617897;87;20176;-79
2022/08/24 04:43:53;;;;;;;;;;;;;;;18.58;99.32;100899.44;1618322;87;20414;-80
2022/08/24 04:46:19;;;;;;;;;;;;;;;18.63;99.36;100908.27;1631403;87;20554;-79
2022/08/24 04:48:47;;;;;;;;;;;;;;;18.67;99.35;100909.52;1622953;87;21753;-79
2022/08/24 04:51:14;;;;;;;;;;;;;;;18.71;99.36;100912.11;1618623;87;20443;-79
2022/08/24 04:53:40;;;;;;;;;;;;;;;18.74;99.37;100914.39;1618565;87;20460;-79
2022/08/24 04:56:21;;;;;;;;;;;;;;;18.76;99.39;100909.59;1618698;87;20333;-80
2022/08/24 04:58:49;;;;;;;;;;;;;;;18.79;99.38;100915.92;1619055;87;20167;-79
2022/08/24 05:01:18;;;;;;;;;;;;;;;18.79;99.40;100913.22;1618560;87;21645;-79
2022/08/24 05:03:46;;;;;;;;;;;;;;;18.79;99.40;100911.35;1620066;87;20424;-79
2022/08/24 05:06:14;;;;;;;;;;;;;;;18.77;99.42;100911.27;1617967;87;20159;-78
2022/08/24 05:08:40;;;;;;;;;;;;;;;18.77;99.44;100911.27;1618376;87;20883;-79
2022/08/24 05:11:07;;;;;;;;;;;;;;;18.82;99.47;100915.53;1634528;87;20171;-79
2022/08/24 05:13:36;;;;;;;;;;;;;;;18.85;99.48;100919.98;1628078;87;21804;-78
2022/08/24 05:16:08;;;;;;;;;;;;;;;18.87;99.51;100917.06;1622006;87;20260;-79
2022/08/24 05:18:34;;;;;;;;;;;;;;;18.88;99.49;100917.38;1617026;87;20198;-79
2022/08/24 05:20:59;;;;;;;;;;;;;;;18.86;99.46;100916.73;1619073;87;20729;-78
2022/08/24 05:23:28;;;;;;;;;;;;;;;18.91;99.47;100925.06;1626239;87;20168;-78
2022/08/24 05:26:06;;;;;;;;;;;;;;;18.91;99.47;100925.89;1625938;87;22586;-79
2022/08/24 05:28:34;;;;;;;;;;;;;;;18.92;99.47;100919.97;1618163;87;20458;-79
2022/08/24 05:31:14;;;;;;;;;;;;;;;18.95;99.46;100920.89;1618837;87;20175;-79
2022/08/24 05:33:40;;;;;;;;;;;;;;;18.98;99.49;100916.93;1618267;87;20358;-79
2022/08/24 05:36:06;;;;;;;;;;;;;;;18.95;99.49;100926.30;1618888;87;20250;-79
2022/08/24 05:38:32;;;;;;;;;;;;;;;18.92;99.46;100924.86;1618630;86;21841;-79
2022/08/24 05:41:03;;;;;;;;;;;;;;;18.92;99.45;100925.37;1644829;86;20265;-79
2022/08/24 05:43:29;;;;;;;;;;;;;;;18.92;99.45;100919.45;1643847;86;20183;-79
2022/08/24 05:45:55;;;;;;;;;;;;;;;18.93;99.44;100925.66;1647465;86;21049;-79
2022/08/24 05:48:21;;;;;;;;;;;;;;;18.94;99.44;100927.33;1644807;86;20426;-79
2022/08/24 05:50:55;;;;;;;;;;;;;;;18.92;99.44;100924.03;1644954;86;21867;-78
2022/08/24 05:53:21;;;;;;;;;;;;;;;18.94;99.46;100924.63;1644843;86;20166;-79
2022/08/24 05:55:47;;;;;;;;;;;;;;;18.94;99.48;100923.28;1644244;86;20333;-79
2022/08/24 05:58:13;;;;;;;;;;;;;;;18.91;99.46;100919.14;1642016;86;20525;-79
2022/08/24 06:00:39;;;;;;;;;;;;;;;18.94;99.49;100921.41;1644611;86;20738;-80
2022/08/24 06:03:05;;;;;;;;;;;;;;;18.96;99.48;100923.92;1644772;86;21571;-79
2022/08/24 06:05:31;;;;;;;;;;;;;;;18.98;99.50;100931.28;1646283;86;20203;-79
2022/08/24 06:07:59;;;;;;;;;;;;;;;18.96;99.49;100934.73;1644455;86;20199;-79
2022/08/24 06:10:25;;;;;;;;;;;;;;;18.96;99.51;100931.48;1644677;86;21018;-79
2022/08/24 06:12:51;;;;;;;;;;;;;;;19.01;99.54;100928.15;1646453;86;20166;-79
2022/08/24 06:15:17;;;;;;;;;;;;;;;19.05;99.58;100923.98;1644613;86;21686;-79
2022/08/24 06:17:43;;;;;;;;;;;;;;;19.02;99.58;100923.06;1644445;86;20134;-80
2022/08/24 06:20:09;;;;;;;;;;;;;;;19.04;99.56;100927.72;1644795;86;20362;-79
2022/08/24 06:22:35;;;;;;;;;;;;;;;19.08;99.56;100926.78;1648790;86;21059;-79
2022/08/24 06:27:45;;;;;;;;;;;;;;;19.07;99.55;100938.11;1644375;86;22435;-79
2022/08/24 06:30:12;;;;;;;;;;;;;;;19.09;99.56;100931.15;1643876;86;20194;-79
2022/08/24 06:32:38;;;;;;;;;;;;;;;19.05;99.56;100937.50;1648103;86;20181;-79
2022/08/24 06:35:06;;;;;;;;;;;;;;;19.05;99.56;100939.38;1643920;86;20430;-79
2022/08/24 06:37:32;;;;;;;;;;;;;;;19.07;99.64;100943.52;1644982;86;20225;-79
2022/08/24 06:39:58;;;;;;;;;;;;;;;19.08;99.59;100947.89;1644218;86;21875;-79
2022/08/24 06:42:25;;;;;;;;;;;;;;;19.09;99.60;100944.16;1644890;86;20118;-79
2022/08/24 06:44:51;;;;;;;;;;;;;;;19.11;99.65;100947.98;1644445;86;20269;-79
2022/08/24 06:47:18;;;;;;;;;;;;;;;19.12;99.66;100953.70;1647623;86;20458;-79
2022/08/24 06:49:44;;;;;;;;;;;;;;;19.09;99.66;100954.97;1657172;86;20107;-79
2022/08/24 06:52:11;;;;;;;;;;;;;;;19.09;99.67;100964.95;1644966;86;21245;-79
2022/08/24 06:54:37;;;;;;;;;;;;;;;19.07;99.64;100962.44;1644736;86;20187;-79
2022/08/24 06:57:03;;;;;;;;;;;;;;;19.11;99.65;100970.95;1644885;86;20258;-79
2022/08/24 06:59:30;;;;;;;;;;;;;;;19.10;99.57;100967.97;1644877;86;20471;-79
2022/08/24 07:01:55;;;;;;;;;;;;;;;19.14;99.62;100971.37;1645080;86;20170;-79
2022/08/24 07:04:23;;;;;;;;;;;;;;;19.18;99.69;100976.67;1645889;86;21819;-79
2022/08/24 07:06:49;;;;;;;;;;;;;;;19.21;99.73;100974.89;1643996;86;20990;-79
2022/08/24 07:09:15;;;;;;;;;;;;;;;19.22;99.70;100976.56;1640017;86;20139;-78
2022/08/24 07:11:41;;;;;;;;;;;;;;;19.23;99.66;100978.74;1643848;86;20378;-79
2022/08/24 07:14:07;;;;;;;;;;;;;;;19.27;99.70;100979.47;1643989;86;20161;-79
2022/08/24 07:16:33;;;;;;;;;;;;;;;19.30;99.73;100980.39;1645520;86;22044;-79
2022/08/24 07:19:01;;;;;;;;;;;;;;;19.32;99.77;100978.81;1648793;86;20566;-79
2022/08/24 07:21:27;;;;;;;;;;;;;;;19.33;99.77;100982.67;1635282;86;20123;-79
2022/08/24 07:23:54;;;;;;;;;;;;;;;19.39;99.78;100980.97;1644561;86;20458;-79
2022/08/24 07:26:21;;;;;;;;;;;;;;;19.49;99.83;100981.93;1648489;86;20132;-79
2022/08/24 07:29:06;;;;;;;;;;;;;;;19.59;99.85;100974.19;1655299;86;21918;-79
2022/08/24 07:31:34;;;;;;;;;;;;;;;19.64;99.77;100977.06;1647198;86;20361;-79
2022/08/24 07:34:00;;;;;;;;;;;;;;;19.69;99.81;100971.84;1656058;86;20183;-79
2022/08/24 07:36:25;;;;;;;;;;;;;;;19.73;99.82;100981.20;1642937;86;20690;-78
2022/08/24 07:38:51;;;;;;;;;;;;;;;19.86;99.91;100979.25;1655944;86;20194;-79
2022/08/24 07:41:20;;;;;;;;;;;;;;;20.07;99.96;100978.61;1644403;86;21913;-79
2022/08/24 07:43:46;;;;;;;;;;;;;;;20.26;99.92;100976.31;1646884;86;20160;-79
2022/08/24 07:46:12;;;;;;;;;;;;;;;20.34;99.82;100980.95;1652708;86;20113;-80
2022/08/24 07:48:38;;;;;;;;;;;;;;;20.40;99.75;100980.62;1649261;86;20436;-79
2022/08/24 07:51:11;;;;;;;;;;;;;;;20.41;99.82;100983.09;1648979;86;20380;-79
2022/08/24 07:53:37;;;;;;;;;;;;;;;20.43;99.84;100981.01;1636425;86;22779;-78
2022/08/24 07:56:03;;;;;;;;;;;;;;;20.47;99.75;100984.62;1644371;86;20333;-79
2022/08/24 07:58:29;;;;;;;;;;;;;;;20.46;99.66;100988.38;1640944;86;20130;-79
2022/08/24 08:00:56;;;;;;;;;;;;;;;20.38;99.59;100988.95;1641623;86;20364;-79
2022/08/24 08:03:25;;;;;;;;;;;;;;;20.40;99.49;100991.45;1639233;86;20146;-82
2022/08/24 08:05:57;;;;;;;;;;;;;;;20.44;99.46;100991.33;1645600;86;21670;-79
2022/08/24 08:08:24;;;;;;;;;;;;;;;20.43;99.41;100989.14;1640303;86;20175;-79
2022/08/24 08:10:50;;;;;;;;;;;;;;;20.41;99.36;100992.57;1647476;86;20199;-77
2022/08/24 08:13:16;;;;;;;;;;;;;;;20.42;99.26;100995.59;1643943;86;21102;-79
2022/08/24 08:15:42;;;;;;;;;;;;;;;20.46;99.26;100997.86;1645725;86;20273;-78
2022/08/24 08:18:07;;;;;;;;;;;;;;;20.47;99.24;101006.31;1642877;86;22595;-79
2022/08/24 08:20:33;;;;;;;;;;;;;;;20.41;99.08;101005.28;1640196;86;20898;-79
2022/08/24 08:25:47;;;;;;;;;;;;;;;20.43;99.09;101018.11;1639683;86;20394;-79
2022/08/24 08:28:14;;;;;;;;;;;;;;;20.46;99.05;101014.13;1644539;86;20113;-79
2022/08/24 08:30:40;;;;;;;;;;;;;;;20.51;99.01;101019.73;1651345;86;21847;-79
2022/08/24 08:33:07;;;;;;;;;;;;;;;20.44;98.93;101013.80;1651391;86;20143;-79
2022/08/24 08:35:33;;;;;;;;;;;;;;;20.47;98.93;101016.63;1638193;86;20209;-79
2022/08/24 08:37:59;;;;;;;;;;;;;;;20.57;98.95;101020.20;1640951;86;20633;-79
2022/08/24 08:41:06;;;;;;;;;;;;;;;20.69;98.93;101019.80;1640523;86;20190;-79
2022/08/24 08:44:00;;;;;;;;;;;;;;;20.82;98.87;101016.97;1640857;86;21984;-80
2022/08/24 08:46:46;;;;;;;;;;;;;;;20.90;98.82;101020.73;1636853;86;20175;-80
2022/08/24 08:49:31;;;;;;;;;;;;;;;20.93;98.79;101025.19;1641715;86;20118;-80
2022/08/24 08:52:13;;;;;;;;;;;;;;;20.95;98.66;101030.41;1634754;86;20599;-79
2022/08/24 08:54:43;;;;;;;;;;;;;;;20.99;98.59;101030.27;1640855;86;20427;-81
2022/08/24 08:57:24;;;;;;;;;;;;;;;20.98;98.42;101023.17;1642084;86;22377;-80
2022/08/24 09:00:17;;;;;;;;;;;;;;;21.01;98.42;101026.80;1629184;86;20492;-79
2022/08/24 09:03:06;;;;;;;;;;;;;;;21.08;98.39;101027.56;1642802;86;20494;-79
2022/08/24 09:06:03;;;;;;;;;;;;;;;21.20;98.30;101025.82;1638105;86;20529;-79
2022/08/24 09:08:48;;;;;;;;;;;;;;;21.28;98.18;101026.89;1623822;86;20202;-79
2022/08/24 09:11:31;;;;;;;;;;;;;;;21.43;98.07;101029.77;1637734;86;21850;-79
2022/08/24 09:14:19;;;;;;;;;;;;;;;21.54;97.93;101033.06;1642307;86;20227;-79
2022/08/24 09:17:07;;;;;;;;;;;;;;;21.67;97.79;101030.22;1639294;86;20423;-79
2022/08/24 09:19:43;;;;;;;;;;;;;;;21.82;97.77;101027.39;1640419;86;20451;-79
2022/08/24 09:22:16;;;;;;;;;;;;;;;21.96;97.70;101024.01;1638499;86;20240;-80
2022/08/24 09:24:55;;;;;;;;;;;;;;;22.06;97.45;101024.84;1641514;86;21853;-79
2022/08/24 09:27:31;;;;;;;;;;;;;;;22.14;97.29;101026.69;1641493;86;20175;-79
2022/08/24 09:30:10;;;;;;;;;;;;;;;22.28;97.08;101029.52;1623097;86;20111;-79
2022/08/24 09:32:56;;;;;;;;;;;;;;;22.34;96.87;101025.87;1633756;86;20632;-80
2022/08/24 09:35:28;;;;;;;;;;;;;;;22.45;96.73;101029.69;1637266;86;20165;-80
2022/08/24 09:38:03;;;;;;;;;;;;;;;22.55;96.53;101033.22;1629291;86;22013;-78
2022/08/24 09:40:44;;;;;;;;;;;;;;;22.60;96.32;101027.36;1630537;86;20202;-79
2022/08/24 09:43:35;;;;;;;;;;;;;;;22.70;96.15;101030.89;1634234;86;20301;-74
2022/08/24 09:46:24;;;;;;;;;;;;;;;22.79;95.93;101026.78;1627848;86;20452;-77
2022/08/24 09:49:02;;;;;;;;;;;;;;;22.92;95.79;101025.19;1634011;86;20626;-78
2022/08/24 09:52:05;;;;;;;;;;;;;;;22.99;95.47;101022.35;1631435;86;21848;-77
2022/08/24 09:54:52;;;;;;;;;;;;;;;23.00;95.21;101026.21;1631578;86;20178;-79
2022/08/24 09:57:24;;;;;;;;;;;;;;;22.92;94.76;101026.55;1628062;86;20480;-75
2022/08/24 10:00:08;;;;;;;;;;;;;;;22.89;94.55;101028.39;1631239;86;20466;-77
2022/08/24 10:03:04;;;;;;;;;;;;;;;22.90;94.33;101024.61;1637607;86;20593;-76
2022/08/24 10:06:01;;;;;;;;;;;;;;;23.05;94.06;101019.52;1631189;86;22002;-78
2022/08/24 10:08:50;;;;;;;;;;;;;;;23.16;93.69;101018.69;1629599;86;20150;-78
2022/08/24 10:11:23;;;;;;;;;;;;;;;23.31;93.57;101023.13;1628320;86;20227;-78
2022/08/24 10:13:58;;;;;;;;;;;;;;;23.37;93.27;101030.86;1628422;86;20454;-79
2022/08/24 10:16:37;;;;;;;;;;;;;;;23.29;92.97;101030.68;1629545;86;20206;-79
2022/08/24 10:19:25;;;;;;;;;;;;;;;23.23;92.74;101028.92;1629254;86;22320;-79
2022/08/24 10:22:13;;;;;;;;;;;;;;;23.24;92.57;101029.22;1631057;86;21338;-78
2022/08/24 10:24:45;;;;;;;;;;;;;;;23.17;92.26;101028.52;1583973;88;20537;-78
2022/08/24 10:27:32;;;;;;;;;;;;;;;23.24;92.07;101029.22;1584920;88;20465;-78
2022/08/24 10:30:10;;;;;;;;;;;;;;;23.25;91.81;101030.89;1610313;86;20142;-78
2022/08/24 10:32:46;;;;;;;;;;;;;;;23.32;91.54;101025.31;1628389;86;21753;-79
2022/08/24 10:35:17;;;;;;;;;;;;;;;23.30;91.17;101025.55;1632975;86;20126;-79
2022/08/24 10:41:38;;;;;;;;;;;;;;;23.35;90.67;101024.31;1629591;86;20489;-79
2022/08/24 10:44:34;;;;;;;;;;;;;;;23.39;90.34;101020.58;1633428;86;20819;-80
2022/08/24 10:47:17;;;;;;;;;;;;;;;23.39;90.05;101025.48;1633769;86;22513;-80
2022/08/24 10:50:09;;;;;;;;;;;;;;;23.49;89.87;101022.71;1635141;86;20372;-79
2022/08/24 10:53:00;;;;;;;;;;;;;;;23.62;89.73;101023.80;1631599;86;20476;-78
2022/08/24 10:55:28;;;;;;;;;;;;;;;23.74;89.46;101024.62;1630245;86;20652;-80
2022/08/24 10:57:58;;;;;;;;;;;;;;;23.71;89.27;101030.55;1627595;86;20219;-79
2022/08/24 11:00:28;;;;;;;;;;;;;;;23.70;89.16;101035.70;1629832;86;22038;-78
2022/08/24 11:03:09;;;;;;;;;;;;;;;23.65;89.00;101043.74;1628332;86;20320;-78
2022/08/24 11:05:42;;;;;;;;;;;;;;;23.56;88.84;101033.77;1627463;86;20388;-80
2022/08/24 11:08:10;;;;;;;;;;;;;;;23.59;88.75;101037.91;1628263;86;20524;-79
2022/08/24 11:10:38;;;;;;;;;;;;;;;23.65;88.61;101034.22;1592725;86;20166;-80
2022/08/24 11:13:22;;;;;;;;;;;;;;;23.64;88.35;101036.66;1626775;86;21917;-81
2022/08/24 11:15:50;;;;;;;;;;;;;;;23.62;88.16;101037.42;1626657;86;20684;-79
2022/08/24 11:18:16;;;;;;;;;;;;;;;23.76;88.05;101033.36;1628453;86;20392;-79
2022/08/24 11:20:45;;;;;;;;;;;;;;;23.82;87.84;101039.20;1633118;86;20474;-79
2022/08/24 11:23:24;;;;;;;;;;;;;;;23.88;87.70;101045.06;1631469;86;20217;-79
2022/08/24 11:25:59;;;;;;;;;;;;;;;23.87;87.50;101039.31;1629737;86;21784;-80
2022/08/24 11:28:40;;;;;;;;;;;;;;;23.93;87.39;101036.98;1634797;86;20853;-78
2022/08/24 11:31:21;;;;;;;;;;;;;;;23.94;87.16;101044.09;1610705;86;20466;-79
2022/08/24 11:33:48;;;;;;;;;;;;;;;23.98;87.08;101047.16;1612031;86;20383;-80
2022/08/24 11:36:19;;;;;;;;;;;;;;;24.07;87.02;101053.34;1630718;86;20211;-78
2022/08/24 11:38:46;;;;;;;;;;;;;;;24.18;86.95;101044.86;1628196;86;21729;-79
2022/08/24 11:41:16;;;;;;;;;;;;;;;24.31;86.82;101048.11;1640115;86;20124;-79
2022/08/24 11:43:57;;;;;;;;;;;;;;;24.33;86.69;101045.98;1640912;86;20183;-80
2022/08/24 11:46:46;;;;;;;;;;;;;;;24.43;86.71;101044.50;1640917;86;21224;-78
2022/08/24 11:49:25;;;;;;;;;;;;;;;24.55;86.51;101039.83;1638218;86;20947;-78
2022/08/24 11:51:54;;;;;;;;;;;;;;;24.60;86.26;101038.53;1599897;85;21758;-78
2022/08/24 11:54:24;;;;;;;;;;;;;;;24.57;85.98;101040.39;1641670;86;20183;-78
2022/08/24 11:57:12;;;;;;;;;;;;;;;24.58;85.74;101042.05;1639994;86;20200;-79
2022/08/24 11:59:58;;;;;;;;;;;;;;;24.67;85.58;101041.92;1639415;86;20422;-79
2022/08/24 12:02:47;;;;;;;;;;;;;;;24.73;85.41;101032.78;1640644;86;20566;-79
2022/08/24 12:05:39;;;;;;;;;;;;;;;24.91;85.31;101039.36;1640969;86;21868;-78
2022/08/24 12:08:11;;;;;;;;;;;;;;;25.04;85.10;101037.67;1640091;86;21097;-79
2022/08/24 12:10:57;;;;;;;;;;;;;;;25.10;84.86;101031.21;1640853;86;20653;-80
2022/08/24 12:13:32;;;;;;;;;;;;;;;25.19;84.76;101037.89;1637629;86;20492;-79
2022/08/24 12:16:02;;;;;;;;;;;;;;;25.20;84.58;101040.91;1646811;86;20166;-79
2022/08/24 12:18:46;;;;;;;;;;;;;;;25.13;84.43;101044.89;1648119;86;22651;-79
2022/08/24 12:21:14;;;;;;;;;;;;;;;25.02;84.30;101039.81;1651735;86;20141;-80
2022/08/24 12:23:49;;;;;;;;;;;;;;;24.99;84.31;101043.58;1650618;86;20179;-80
2022/08/24 12:26:37;;;;;;;;;;;;;;;24.93;84.22;101045.95;1605090;87;20412;-80
2022/08/24 12:29:25;;;;;;;;;;;;;;;24.87;84.16;101045.05;1600056;87;20208;-78
2022/08/24 12:32:04;;;;;;;;;;;;;;;24.84;84.07;101045.52;1601249;87;22481;-79
2022/08/24 12:34:45;;;;;;;;;;;;;;;24.88;84.13;101043.95;1618743;86;20117;-79
2022/08/24 12:37:34;;;;;;;;;;;;;;;25.04;84.15;101045.86;1597256;87;20181;-79
2022/08/24 12:40:07;;;;;;;;;;;;;;;25.08;83.89;101044.30;1610668;87;20513;-80
2022/08/24 12:42:54;;;;;;;;;;;;;;;25.19;83.83;101041.18;1669935;85;20640;-80
2022/08/24 12:45:22;;;;;;;;;;;;;;;25.28;83.72;101040.50;1661975;85;22702;-79
2022/08/24 12:47:57;;;;;;;;;;;;;;;25.40;83.56;101039.56;1658741;85;20637;-79
2022/08/24 12:50:45;;;;;;;;;;;;;;;25.32;83.36;101044.38;1679721;85;20161;-79
2022/08/24 12:53:43;;;;;;;;;;;;;;;25.33;83.34;101043.28;1620539;87;20460;-80
2022/08/24 12:56:38;;;;;;;;;;;;;;;25.18;83.11;101043.08;1619250;88;20104;-78
2022/08/24 12:59:17;;;;;;;;;;;;;;;25.07;83.02;101032.25;1625667;87;22455;-79
2022/08/24 13:01:45;;;;;;;;;;;;;;;25.11;83.00;101024.69;1623161;87;20548;-80
2022/08/24 13:04:21;;;;;;;;;;;;;;;25.19;82.91;101036.52;1622482;86;20202;-79
2022/08/24 13:06:53;;;;;;;;;;;;;;;25.26;82.80;101037.17;1656735;85;20685;-79
2022/08/24 13:09:29;;;;;;;;;;;;;;;25.38;82.68;101036.24;1658112;85;20221;-80